createdAt,value
2016-08-04T00:00:18.128Z,995.38
2016-08-04T00:01:18.144Z,995.43
2016-08-04T00:02:18.168Z,995.47
2016-08-04T00:03:18.187Z,995.39
2016-08-04T00:04:18.206Z,995.4
2016-08-04T00:05:18.227Z,995.37
2016-08-04T00:06:18.244Z,995.38
2016-08-04T00:07:18.267Z,995.36
2016-08-04T00:08:18.285Z,995.31
2016-08-04T00:09:18.304Z,995.27
2016-08-04T00:10:18.323Z,995.27
2016-08-04T00:11:18.344Z,995.31
2016-08-04T00:12:18.361Z,995.27
2016-08-04T00:13:18.381Z,995.31
2016-08-04T00:14:18.401Z,995.36
2016-08-04T00:15:18.419Z,995.34
2016-08-04T00:16:18.438Z,995.31
2016-08-04T00:17:18.460Z,995.4
2016-08-04T00:18:18.476Z,995.43
2016-08-04T00:19:18.499Z,995.43
2016-08-04T00:20:18.517Z,995.42
2016-08-04T00:21:18.537Z,995.42
2016-08-04T00:22:18.557Z,995.38
2016-08-04T00:23:18.574Z,995.33
2016-08-04T00:24:18.593Z,995.42
2016-08-04T00:25:18.616Z,995.37
2016-08-04T00:26:18.634Z,995.19
2016-08-04T00:27:18.655Z,995.15
2016-08-04T00:28:18.671Z,995.17
2016-08-04T00:29:18.692Z,995.14
2016-08-04T00:30:18.709Z,995.15
2016-08-04T00:31:18.730Z,995.08
2016-08-04T00:32:18.747Z,995.04
2016-08-04T00:33:18.767Z,995.02
2016-08-04T00:34:18.788Z,994.99
2016-08-04T00:35:18.802Z,994.94
2016-08-04T00:36:18.823Z,994.96
2016-08-04T00:37:18.840Z,994.94
2016-08-04T00:38:18.860Z,994.98
2016-08-04T00:39:18.878Z,994.98
2016-08-04T00:40:18.901Z,994.96
2016-08-04T00:41:18.923Z,994.89
2016-08-04T00:42:18.937Z,994.86
2016-08-04T00:43:18.964Z,994.93
2016-08-04T00:44:18.977Z,994.95
2016-08-04T00:45:18.994Z,994.92
2016-08-04T00:46:19.014Z,994.94
2016-08-04T00:47:19.033Z,994.91
2016-08-04T00:48:19.053Z,994.95
2016-08-04T00:49:19.072Z,994.96
2016-08-04T00:50:19.091Z,994.97
2016-08-04T00:51:19.108Z,994.95
2016-08-04T00:52:19.128Z,994.95
2016-08-04T00:53:19.148Z,994.9
2016-08-04T00:54:19.167Z,994.96
2016-08-04T00:55:19.187Z,994.94
2016-08-04T00:56:19.203Z,994.91
2016-08-04T00:57:19.221Z,994.89
2016-08-04T00:58:19.243Z,994.86
2016-08-04T00:59:19.264Z,994.85
2016-08-04T01:00:19.280Z,994.83
2016-08-04T01:01:19.304Z,994.84
2016-08-04T01:02:19.318Z,994.78
2016-08-04T01:03:19.338Z,994.82
2016-08-04T01:04:19.363Z,994.81
2016-08-04T01:05:19.379Z,994.89
2016-08-04T01:06:19.399Z,994.83
2016-08-04T01:07:19.420Z,994.86
2016-08-04T01:08:19.448Z,994.85
2016-08-04T01:09:19.459Z,994.86
2016-08-04T01:10:19.479Z,994.92
2016-08-04T01:11:19.496Z,994.76
2016-08-04T01:12:19.519Z,994.88
2016-08-04T01:13:19.534Z,994.9
2016-08-04T01:14:19.557Z,994.92
2016-08-04T01:15:19.573Z,994.85
2016-08-04T01:16:19.591Z,994.86
2016-08-04T01:17:19.612Z,994.66
2016-08-04T01:18:19.638Z,994.76
2016-08-04T01:19:19.651Z,994.66
2016-08-04T01:20:19.667Z,994.7
2016-08-04T01:21:19.691Z,994.7
2016-08-04T01:22:19.706Z,994.69
2016-08-04T01:23:19.724Z,994.65
2016-08-04T01:24:19.745Z,994.68
2016-08-04T01:25:19.763Z,994.7
2016-08-04T01:26:19.783Z,994.64
2016-08-04T01:27:19.799Z,994.72
2016-08-04T01:28:19.821Z,994.68
2016-08-04T01:29:19.841Z,994.61
2016-08-04T01:30:19.860Z,994.58
2016-08-04T01:31:19.882Z,994.55
2016-08-04T01:32:19.900Z,994.6
2016-08-04T01:33:19.919Z,994.65
2016-08-04T01:34:19.938Z,994.65
2016-08-04T01:35:19.957Z,994.58
2016-08-04T01:36:19.973Z,994.59
2016-08-04T01:37:19.994Z,994.52
2016-08-04T01:38:20.014Z,994.55
2016-08-04T01:39:20.032Z,994.59
2016-08-04T01:40:20.048Z,994.62
2016-08-04T01:41:20.068Z,994.6
2016-08-04T01:42:20.093Z,994.58
2016-08-04T01:43:20.105Z,994.67
2016-08-04T01:44:20.129Z,994.65
2016-08-04T01:45:20.144Z,994.68
2016-08-04T01:46:20.165Z,994.62
2016-08-04T01:47:20.190Z,994.6
2016-08-04T01:48:20.203Z,994.65
2016-08-04T01:49:20.228Z,994.63
2016-08-04T01:50:20.242Z,994.58
2016-08-04T01:51:20.265Z,994.64
2016-08-04T01:52:20.282Z,994.7
2016-08-04T01:53:20.302Z,994.69
2016-08-04T01:54:20.320Z,994.76
2016-08-04T01:55:20.338Z,994.68
2016-08-04T01:56:20.360Z,994.71
2016-08-04T01:57:20.377Z,994.66
2016-08-04T01:58:20.399Z,994.67
2016-08-04T01:59:20.416Z,994.61
2016-08-04T02:00:20.434Z,994.57
2016-08-04T02:01:20.454Z,994.57
2016-08-04T02:02:20.474Z,994.6
2016-08-04T02:03:20.495Z,994.58
2016-08-04T02:04:20.509Z,994.67
2016-08-04T02:05:20.530Z,994.66
2016-08-04T02:06:20.550Z,994.69
2016-08-04T02:07:20.571Z,994.68
2016-08-04T02:08:20.592Z,994.65
2016-08-04T02:09:20.606Z,994.65
2016-08-04T02:10:20.627Z,994.72
2016-08-04T02:11:20.644Z,994.73
2016-08-04T02:12:20.666Z,994.75
2016-08-04T02:13:20.681Z,994.79
2016-08-04T02:14:20.704Z,994.83
2016-08-04T02:15:20.720Z,994.78
2016-08-04T02:16:20.741Z,994.73
2016-08-04T02:17:20.761Z,994.77
2016-08-04T02:18:20.779Z,994.71
2016-08-04T02:19:20.797Z,994.76
2016-08-04T02:21:20.836Z,994.74
2016-08-04T02:22:20.857Z,994.75
2016-08-04T02:23:20.877Z,994.69
2016-08-04T02:24:20.891Z,994.72
2016-08-04T02:25:20.913Z,994.71
2016-08-04T02:26:20.930Z,994.73
2016-08-04T02:27:20.951Z,994.71
2016-08-04T02:28:20.967Z,994.75
2016-08-04T02:29:20.988Z,994.75
2016-08-04T02:30:21.011Z,994.73
2016-08-04T02:31:21.029Z,994.69
2016-08-04T02:32:21.046Z,994.72
2016-08-04T02:33:21.064Z,994.76
2016-08-04T02:34:21.087Z,994.74
2016-08-04T02:36:21.122Z,994.71
2016-08-04T02:37:21.141Z,994.78
2016-08-04T02:38:21.160Z,994.7
2016-08-04T02:39:21.183Z,994.72
2016-08-04T02:40:21.203Z,994.68
2016-08-04T02:41:21.222Z,994.63
2016-08-04T02:42:21.235Z,994.65
2016-08-04T02:43:21.258Z,994.61
2016-08-04T02:44:21.279Z,994.61
2016-08-04T02:45:21.298Z,994.57
2016-08-04T02:46:21.318Z,994.6
2016-08-04T02:47:21.330Z,994.56
2016-08-04T02:48:21.353Z,994.54
2016-08-04T02:49:21.373Z,994.51
2016-08-04T02:51:21.417Z,994.46
2016-08-04T02:52:21.430Z,994.47
2016-08-04T02:53:21.449Z,994.45
2016-08-04T02:54:21.468Z,994.47
2016-08-04T02:55:21.489Z,994.46
2016-08-04T02:56:21.508Z,994.4
2016-08-04T02:57:21.526Z,994.43
2016-08-04T02:58:21.548Z,994.44
2016-08-04T02:59:21.563Z,994.46
2016-08-04T03:00:21.586Z,994.44
2016-08-04T03:01:21.603Z,994.39
2016-08-04T03:02:21.621Z,994.35
2016-08-04T03:03:21.642Z,994.37
2016-08-04T03:04:21.660Z,994.41
2016-08-04T03:05:21.684Z,994.48
2016-08-04T03:06:21.697Z,994.49
2016-08-04T03:07:21.719Z,994.45
2016-08-04T03:08:21.737Z,994.41
2016-08-04T03:09:21.756Z,994.44
2016-08-04T03:10:21.776Z,994.43
2016-08-04T03:11:21.796Z,994.41
2016-08-04T03:12:21.818Z,994.41
2016-08-04T03:13:21.831Z,994.43
2016-08-04T03:14:21.859Z,994.42
2016-08-04T03:15:21.872Z,994.43
2016-08-04T03:16:21.891Z,994.38
2016-08-04T03:17:21.914Z,994.39
2016-08-04T03:18:21.930Z,994.43
2016-08-04T03:19:21.953Z,994.43
2016-08-04T03:21:21.990Z,994.44
2016-08-04T03:22:22.007Z,994.48
2016-08-04T03:23:22.027Z,994.43
2016-08-04T03:24:22.045Z,994.47
2016-08-04T03:25:22.065Z,994.47
2016-08-04T03:26:22.086Z,994.51
2016-08-04T03:27:22.103Z,994.49
2016-08-04T03:28:22.123Z,994.47
2016-08-04T03:29:22.145Z,994.46
2016-08-04T03:30:22.162Z,994.47
2016-08-04T03:31:22.180Z,994.47
2016-08-04T03:32:22.196Z,994.46
2016-08-04T03:33:22.220Z,994.47
2016-08-04T03:34:22.235Z,994.49
2016-08-04T03:36:22.275Z,994.43
2016-08-04T03:37:22.296Z,994.39
2016-08-04T03:38:22.315Z,994.33
2016-08-04T03:39:22.331Z,994.32
2016-08-04T03:40:22.352Z,994.39
2016-08-04T03:41:22.371Z,994.39
2016-08-04T03:42:22.393Z,994.38
2016-08-04T03:43:22.411Z,994.42
2016-08-04T03:44:22.430Z,994.5
2016-08-04T03:45:22.451Z,994.54
2016-08-04T03:46:22.467Z,994.53
2016-08-04T03:47:22.488Z,994.49
2016-08-04T03:48:22.505Z,994.43
2016-08-04T03:49:22.526Z,994.45
2016-08-04T03:51:22.573Z,994.37
2016-08-04T03:52:22.585Z,994.4
2016-08-04T03:53:22.602Z,994.4
2016-08-04T03:54:22.622Z,994.4
2016-08-04T03:55:22.643Z,994.41
2016-08-04T03:56:22.660Z,994.36
2016-08-04T03:57:22.678Z,994.38
2016-08-04T03:58:22.698Z,994.32
2016-08-04T03:59:22.717Z,994.29
2016-08-04T04:00:22.734Z,994.37
2016-08-04T04:01:22.755Z,994.28
2016-08-04T04:02:22.775Z,994.31
2016-08-04T04:03:22.795Z,994.38
2016-08-04T04:04:22.813Z,994.36
2016-08-04T04:05:22.833Z,994.32
2016-08-04T04:06:22.853Z,994.34
2016-08-04T04:07:22.869Z,994.34
2016-08-04T04:08:22.889Z,994.39
2016-08-04T04:09:22.911Z,994.42
2016-08-04T04:10:22.929Z,994.36
2016-08-04T04:11:22.950Z,994.38
2016-08-04T04:12:22.967Z,994.37
2016-08-04T04:13:22.988Z,994.39
2016-08-04T04:14:23.012Z,994.4
2016-08-04T04:15:23.025Z,994.39
2016-08-04T04:16:23.046Z,994.37
2016-08-04T04:17:23.062Z,994.39
2016-08-04T04:18:23.084Z,994.37
2016-08-04T04:19:23.103Z,994.45
2016-08-04T04:20:23.118Z,994.43
2016-08-04T04:21:23.141Z,994.45
2016-08-04T04:22:23.156Z,994.4
2016-08-04T04:23:23.184Z,994.39
2016-08-04T04:24:23.199Z,994.43
2016-08-04T04:25:23.219Z,994.44
2016-08-04T04:26:23.236Z,994.44
2016-08-04T04:27:23.254Z,994.4
2016-08-04T04:28:23.273Z,994.38
2016-08-04T04:29:23.290Z,994.34
2016-08-04T04:30:23.315Z,994.33
2016-08-04T04:31:23.331Z,994.41
2016-08-04T04:32:23.352Z,994.39
2016-08-04T04:33:23.374Z,994.46
2016-08-04T04:34:23.391Z,994.48
2016-08-04T04:35:23.412Z,994.42
2016-08-04T04:36:23.428Z,994.45
2016-08-04T04:37:23.449Z,994.47
2016-08-04T04:38:23.468Z,994.43
2016-08-04T04:39:23.485Z,994.49
2016-08-04T04:40:23.504Z,994.46
2016-08-04T04:41:23.525Z,994.49
2016-08-04T04:42:23.544Z,994.52
2016-08-04T04:43:23.560Z,994.5
2016-08-04T04:44:23.585Z,994.52
2016-08-04T04:45:23.597Z,994.48
2016-08-04T04:46:23.621Z,994.53
2016-08-04T04:47:23.639Z,994.57
2016-08-04T04:48:23.657Z,994.51
2016-08-04T04:49:23.677Z,994.52
2016-08-04T04:50:23.698Z,994.53
2016-08-04T04:51:23.716Z,994.57
2016-08-04T04:52:23.735Z,994.57
2016-08-04T04:53:23.754Z,994.57
2016-08-04T04:54:23.773Z,994.59
2016-08-04T04:55:23.793Z,994.57
2016-08-04T04:56:23.811Z,994.52
2016-08-04T04:57:23.831Z,994.54
2016-08-04T04:58:23.852Z,994.5
2016-08-04T04:59:23.868Z,994.52
2016-08-04T05:00:23.887Z,994.51
2016-08-04T05:01:23.908Z,994.51
2016-08-04T05:02:23.927Z,994.56
2016-08-04T05:03:23.949Z,994.6
2016-08-04T05:04:23.965Z,994.63
2016-08-04T05:05:23.984Z,994.53
2016-08-04T05:06:24.006Z,994.59
2016-08-04T05:07:24.022Z,994.6
2016-08-04T05:08:24.043Z,994.58
2016-08-04T05:09:24.063Z,994.62
2016-08-04T05:10:24.080Z,994.66
2016-08-04T05:11:24.106Z,994.68
2016-08-04T05:12:24.119Z,994.64
2016-08-04T05:13:24.141Z,994.63
2016-08-04T05:14:24.158Z,994.69
2016-08-04T05:15:24.176Z,994.68
2016-08-04T05:16:24.194Z,994.69
2016-08-04T05:17:24.214Z,994.67
2016-08-04T05:18:24.235Z,994.66
2016-08-04T05:19:24.255Z,994.68
2016-08-04T05:20:24.275Z,994.66
2016-08-04T05:21:24.295Z,994.69
2016-08-04T05:22:24.317Z,994.7
2016-08-04T05:23:24.334Z,994.73
2016-08-04T05:24:24.353Z,994.72
2016-08-04T05:25:24.372Z,994.66
2016-08-04T05:26:24.390Z,994.72
2016-08-04T05:27:24.409Z,994.68
2016-08-04T05:28:24.430Z,994.64
2016-08-04T05:29:24.452Z,994.67
2016-08-04T05:30:24.466Z,994.6
2016-08-04T05:31:24.489Z,994.67
2016-08-04T05:32:24.510Z,994.65
2016-08-04T05:33:24.525Z,994.67
2016-08-04T05:34:24.547Z,994.68
2016-08-04T05:35:24.566Z,994.67
2016-08-04T05:36:24.584Z,994.69
2016-08-04T05:37:24.603Z,994.73
2016-08-04T05:38:24.623Z,994.75
2016-08-04T05:39:24.645Z,994.78
2016-08-04T05:40:24.663Z,994.77
2016-08-04T05:41:24.683Z,994.78
2016-08-04T05:42:24.701Z,994.77
2016-08-04T05:43:24.724Z,994.79
2016-08-04T05:44:24.743Z,994.8
2016-08-04T05:45:24.763Z,994.72
2016-08-04T05:46:24.780Z,994.71
2016-08-04T05:47:24.803Z,994.72
2016-08-04T05:48:24.820Z,994.74
2016-08-04T05:49:24.841Z,994.73
2016-08-04T05:50:24.862Z,994.71
2016-08-04T05:51:24.886Z,994.73
2016-08-04T05:52:24.904Z,994.75
2016-08-04T05:53:24.918Z,994.76
2016-08-04T05:54:24.943Z,994.8
2016-08-04T05:55:24.961Z,994.79
2016-08-04T05:56:24.980Z,994.82
2016-08-04T05:57:24.997Z,994.83
2016-08-04T05:58:25.019Z,994.8
2016-08-04T05:59:25.039Z,994.84
2016-08-04T06:00:25.058Z,994.82
2016-08-04T06:01:25.077Z,994.84
2016-08-04T06:02:25.098Z,994.85
2016-08-04T06:03:25.119Z,994.9
2016-08-04T06:04:25.139Z,994.87
2016-08-04T06:05:25.156Z,994.83
2016-08-04T06:06:25.177Z,994.86
2016-08-04T06:07:25.199Z,994.86
2016-08-04T06:08:25.221Z,994.86
2016-08-04T06:09:25.242Z,994.86
2016-08-04T06:10:25.257Z,994.87
2016-08-04T06:11:25.280Z,994.86
2016-08-04T06:12:25.302Z,994.87
2016-08-04T06:13:25.323Z,994.9
2016-08-04T06:14:25.340Z,994.91
2016-08-04T06:15:25.360Z,994.9
2016-08-04T06:16:25.381Z,994.91
2016-08-04T06:17:25.402Z,995.03
2016-08-04T06:18:25.420Z,995.01
2016-08-04T06:19:25.442Z,995.03
2016-08-04T06:20:25.461Z,995.03
2016-08-04T06:21:25.479Z,995.01
2016-08-04T06:22:25.501Z,995.04
2016-08-04T06:23:25.522Z,995.08
2016-08-04T06:24:25.541Z,995.06
2016-08-04T06:25:25.563Z,995.07
2016-08-04T06:26:25.586Z,995.04
2016-08-04T06:27:25.605Z,995.05
2016-08-04T06:28:25.624Z,995.01
2016-08-04T06:29:25.643Z,994.98
2016-08-04T06:30:25.664Z,994.96
2016-08-04T06:31:25.687Z,994.99
2016-08-04T06:32:25.706Z,995.01
2016-08-04T06:33:25.725Z,995.04
2016-08-04T06:34:25.745Z,995.05
2016-08-04T06:35:25.769Z,995.05
2016-08-04T06:36:25.787Z,995.04
2016-08-04T06:37:25.811Z,995.04
2016-08-04T06:38:25.833Z,994.99
2016-08-04T06:39:25.853Z,995.05
2016-08-04T06:40:25.867Z,995.09
2016-08-04T06:41:25.895Z,995.12
2016-08-04T06:42:25.916Z,995.06
2016-08-04T06:43:25.930Z,995.02
2016-08-04T06:44:25.951Z,995
2016-08-04T06:45:25.972Z,994.99
2016-08-04T06:46:25.995Z,995
2016-08-04T06:47:26.014Z,994.98
2016-08-04T06:48:26.040Z,994.93
2016-08-04T06:49:26.059Z,994.93
2016-08-04T06:50:26.076Z,994.95
2016-08-04T06:52:26.121Z,995.01
2016-08-04T06:53:26.141Z,994.97
2016-08-04T06:54:26.158Z,995.01
2016-08-04T06:55:26.181Z,994.95
2016-08-04T06:56:26.202Z,994.94
2016-08-04T06:57:26.225Z,994.87
2016-08-04T06:58:26.244Z,994.84
2016-08-04T06:59:26.268Z,994.91
2016-08-04T07:00:26.286Z,994.93
2016-08-04T07:01:26.309Z,994.96
2016-08-04T07:02:26.330Z,995
2016-08-04T07:03:26.350Z,995.02
2016-08-04T07:04:26.374Z,995.05
2016-08-04T07:05:26.393Z,995.09
2016-08-04T07:07:26.434Z,995.04
2016-08-04T07:08:26.458Z,994.98
2016-08-04T07:09:26.477Z,994.99
2016-08-04T07:10:26.498Z,994.93
2016-08-04T07:11:26.520Z,994.99
2016-08-04T07:12:26.539Z,995.04
2016-08-04T07:13:26.562Z,995.04
2016-08-04T07:14:26.584Z,995.08
2016-08-04T07:15:26.605Z,995.13
2016-08-04T07:16:26.630Z,995.12
2016-08-04T07:17:26.645Z,995.19
2016-08-04T07:18:26.669Z,995.12
2016-08-04T07:19:26.687Z,995.19
2016-08-04T07:20:26.708Z,995.25
2016-08-04T07:22:26.752Z,995.31
2016-08-04T07:23:26.774Z,995.23
2016-08-04T07:24:26.794Z,995.19
2016-08-04T07:25:26.818Z,995.28
2016-08-04T07:26:26.837Z,995.26
2016-08-04T07:27:26.861Z,995.23
2016-08-04T07:28:26.877Z,995.18
2016-08-04T07:29:26.901Z,995.2
2016-08-04T07:30:26.924Z,995.21
2016-08-04T07:31:26.940Z,995.25
2016-08-04T07:32:26.961Z,995.25
2016-08-04T07:33:26.980Z,995.22
2016-08-04T07:34:26.998Z,995.26
2016-08-04T07:35:27.020Z,995.32
2016-08-04T07:37:27.065Z,995.32
2016-08-04T07:38:27.082Z,995.38
2016-08-04T07:39:27.103Z,995.43
2016-08-04T07:40:27.127Z,995.55
2016-08-04T07:41:27.149Z,995.5
2016-08-04T07:42:40.158Z,995.5
2016-08-04T07:43:40.176Z,995.51
2016-08-04T07:44:40.197Z,995.55
2016-08-04T07:45:40.219Z,995.44
2016-08-04T07:46:40.243Z,995.49
2016-08-04T07:48:40.278Z,995.34
2016-08-04T07:49:40.302Z,995.36
2016-08-04T07:50:40.323Z,995.33
2016-08-04T07:51:40.344Z,995.39
2016-08-04T07:52:40.365Z,995.43
2016-08-04T07:53:40.385Z,995.45
2016-08-04T07:54:40.405Z,995.48
2016-08-04T07:55:40.423Z,995.47
2016-08-04T07:56:40.448Z,995.48
2016-08-04T07:57:40.465Z,995.49
2016-08-04T07:58:40.489Z,995.49
2016-08-04T07:59:40.508Z,995.49
2016-08-04T08:00:40.528Z,995.51
2016-08-04T08:01:40.546Z,995.53
2016-08-04T08:02:40.568Z,995.57
2016-08-04T08:03:40.591Z,995.62
2016-08-04T08:04:40.607Z,995.65
2016-08-04T08:05:40.635Z,995.57
2016-08-04T08:06:40.650Z,995.61
2016-08-04T08:07:40.672Z,995.64
2016-08-04T08:08:40.693Z,995.58
2016-08-04T08:09:40.713Z,995.58
2016-08-04T08:10:40.736Z,995.61
2016-08-04T08:11:40.755Z,995.55
2016-08-04T08:12:40.776Z,995.55
2016-08-04T08:13:40.799Z,995.55
2016-08-04T08:14:40.820Z,995.52
2016-08-04T08:15:40.838Z,995.49
2016-08-04T08:16:40.859Z,995.56
2016-08-04T08:17:40.881Z,995.61
2016-08-04T08:18:40.900Z,995.63
2016-08-04T08:19:40.926Z,995.62
2016-08-04T08:20:40.948Z,995.62
2016-08-04T08:21:40.966Z,995.63
2016-08-04T08:22:40.987Z,995.66
2016-08-04T08:23:41.009Z,995.64
2016-08-04T08:24:41.029Z,995.6
2016-08-04T08:25:41.055Z,995.7
2016-08-04T08:26:41.072Z,995.69
2016-08-04T08:27:41.092Z,995.65
2016-08-04T08:28:41.114Z,995.67
2016-08-04T08:29:41.133Z,995.62
2016-08-04T08:30:41.158Z,995.66
2016-08-04T08:31:41.180Z,995.69
2016-08-04T08:32:41.204Z,995.69
2016-08-04T08:33:41.222Z,995.67
2016-08-04T08:34:41.242Z,995.66
2016-08-04T08:35:41.265Z,995.62
2016-08-04T08:36:41.290Z,995.57
2016-08-04T08:37:41.312Z,995.63
2016-08-04T08:38:41.331Z,995.58
2016-08-04T08:39:41.353Z,995.55
2016-08-04T08:40:41.376Z,995.59
2016-08-04T08:41:41.398Z,995.57
2016-08-04T08:42:41.419Z,995.53
2016-08-04T08:43:41.440Z,995.49
2016-08-04T08:44:41.461Z,995.45
2016-08-04T08:45:41.483Z,995.42
2016-08-04T08:46:41.504Z,995.44
2016-08-04T08:47:41.525Z,995.53
2016-08-04T08:48:41.546Z,995.5
2016-08-04T08:49:41.567Z,995.48
2016-08-04T08:50:41.594Z,995.47
2016-08-04T08:52:41.633Z,995.51
2016-08-04T08:53:41.655Z,995.56
2016-08-04T08:54:41.674Z,995.57
2016-08-04T08:55:41.702Z,995.61
2016-08-04T08:56:41.721Z,995.59
2016-08-04T08:57:41.741Z,995.61
2016-08-04T08:58:41.763Z,995.59
2016-08-04T08:59:41.784Z,995.52
2016-08-04T09:00:41.807Z,995.6
2016-08-04T09:01:41.831Z,995.68
2016-08-04T09:02:41.852Z,995.66
2016-08-04T09:03:41.870Z,995.65
2016-08-04T09:04:41.897Z,995.58
2016-08-04T09:05:41.919Z,995.61
2016-08-04T09:06:41.940Z,995.59
2016-08-04T09:07:41.964Z,995.66
2016-08-04T09:08:41.987Z,995.6
2016-08-04T09:09:42.007Z,995.64
2016-08-04T09:10:42.025Z,995.71
2016-08-04T09:11:42.056Z,995.71
2016-08-04T09:12:42.071Z,995.74
2016-08-04T09:13:42.095Z,995.78
2016-08-04T09:14:42.114Z,995.82
2016-08-04T09:15:42.134Z,995.73
2016-08-04T09:16:42.158Z,995.7
2016-08-04T09:17:42.179Z,995.71
2016-08-04T09:18:42.200Z,995.61
2016-08-04T09:19:42.221Z,995.66
2016-08-04T09:20:42.252Z,995.69
2016-08-04T09:22:42.287Z,995.74
2016-08-04T09:23:42.312Z,995.74
2016-08-04T09:24:42.333Z,995.74
2016-08-04T09:25:42.356Z,995.77
2016-08-04T09:26:42.376Z,995.75
2016-08-04T09:27:42.399Z,995.75
2016-08-04T09:28:42.419Z,995.78
2016-08-04T09:29:42.441Z,995.76
2016-08-04T09:30:42.462Z,995.79
2016-08-04T09:31:42.484Z,995.79
2016-08-04T09:32:42.504Z,995.74
2016-08-04T09:33:42.524Z,995.75
2016-08-04T09:34:42.548Z,995.7
2016-08-04T09:35:42.572Z,995.64
2016-08-04T09:36:42.594Z,995.64
2016-08-04T09:37:42.614Z,995.67
2016-08-04T09:38:42.633Z,995.54
2016-08-04T09:39:42.699Z,995.63
2016-08-04T09:40:42.701Z,995.62
2016-08-04T09:41:42.737Z,995.67
2016-08-04T09:42:42.722Z,995.62
2016-08-04T09:43:42.795Z,995.7
2016-08-04T09:44:42.766Z,995.69
2016-08-04T09:45:42.790Z,995.66
2016-08-04T09:46:42.811Z,995.69
2016-08-04T09:47:42.831Z,995.69
2016-08-04T09:48:42.855Z,995.7
2016-08-04T09:49:42.874Z,995.66
2016-08-04T09:50:42.898Z,995.67
2016-08-04T09:51:42.922Z,995.59
2016-08-04T09:52:42.941Z,995.65
2016-08-04T09:53:42.961Z,995.66
2016-08-04T09:54:42.987Z,995.62
2016-08-04T09:55:43.007Z,995.62
2016-08-04T09:56:43.031Z,995.61
2016-08-04T09:57:43.053Z,995.63
2016-08-04T09:58:43.075Z,995.68
2016-08-04T09:59:43.092Z,995.74
2016-08-04T10:00:43.118Z,995.71
2016-08-04T10:01:43.139Z,995.74
2016-08-04T10:02:43.162Z,995.77
2016-08-04T10:03:43.181Z,995.75
2016-08-04T10:04:43.207Z,995.77
2016-08-04T10:05:43.226Z,995.75
2016-08-04T10:06:43.248Z,995.79
2016-08-04T10:07:43.269Z,995.76
2016-08-04T10:08:43.294Z,995.74
2016-08-04T10:09:43.314Z,995.75
2016-08-04T10:10:43.336Z,995.86
2016-08-04T10:11:43.360Z,995.8
2016-08-04T10:12:43.380Z,995.79
2016-08-04T10:13:43.408Z,995.78
2016-08-04T10:14:43.428Z,995.83
2016-08-04T10:15:43.447Z,995.8
2016-08-04T10:16:43.468Z,995.8
2016-08-04T10:17:43.491Z,995.8
2016-08-04T10:18:43.527Z,995.77
2016-08-04T10:19:43.535Z,995.75
2016-08-04T10:20:43.557Z,995.74
2016-08-04T10:21:43.579Z,995.77
2016-08-04T10:22:43.605Z,995.8
2016-08-04T10:23:43.624Z,995.83
2016-08-04T10:24:43.648Z,995.9
2016-08-04T10:25:43.669Z,995.89
2016-08-04T10:26:43.692Z,995.86
2016-08-04T10:27:43.714Z,995.82
2016-08-04T10:28:43.738Z,995.81
2016-08-04T10:29:43.761Z,995.83
2016-08-04T10:30:43.780Z,995.8
2016-08-04T10:31:43.797Z,995.84
2016-08-04T10:32:43.824Z,995.93
2016-08-04T10:33:43.846Z,995.91
2016-08-04T10:34:43.878Z,995.92
2016-08-04T10:35:43.892Z,995.9
2016-08-04T10:36:43.910Z,995.88
2016-08-04T10:37:43.934Z,995.92
2016-08-04T10:38:43.956Z,995.94
2016-08-04T10:39:43.983Z,995.91
2016-08-04T10:40:44.005Z,995.93
2016-08-04T10:41:44.026Z,995.89
2016-08-04T10:42:44.047Z,995.89
2016-08-04T10:43:44.071Z,995.89
2016-08-04T10:44:44.095Z,995.86
2016-08-04T10:45:44.113Z,995.77
2016-08-04T10:46:44.146Z,995.78
2016-08-04T10:47:44.162Z,995.83
2016-08-04T10:48:44.184Z,995.79
2016-08-04T10:49:44.206Z,995.77
2016-08-04T10:50:44.243Z,995.79
2016-08-04T10:51:44.252Z,995.78
2016-08-04T10:52:44.275Z,995.81
2016-08-04T10:53:44.301Z,995.74
2016-08-04T10:54:44.324Z,995.78
2016-08-04T10:55:44.345Z,995.75
2016-08-04T10:56:44.366Z,995.72
2016-08-04T10:57:44.387Z,995.72
2016-08-04T10:58:44.428Z,995.7
2016-08-04T10:59:44.434Z,995.66
2016-08-04T11:00:44.464Z,995.68
2016-08-04T11:01:44.479Z,995.68
2016-08-04T11:02:44.516Z,995.72
2016-08-04T11:03:44.527Z,995.69
2016-08-04T11:04:44.551Z,995.65
2016-08-04T11:05:44.571Z,995.69
2016-08-04T11:06:44.600Z,995.7
2016-08-04T11:07:44.617Z,995.66
2016-08-04T11:08:44.641Z,995.73
2016-08-04T11:09:44.662Z,995.75
2016-08-04T11:10:44.689Z,995.79
2016-08-04T11:11:44.708Z,995.77
2016-08-04T11:12:44.743Z,995.77
2016-08-04T11:13:44.759Z,995.74
2016-08-04T11:14:44.782Z,995.71
2016-08-04T11:15:44.806Z,995.75
2016-08-04T11:16:44.828Z,995.71
2016-08-04T11:17:44.877Z,995.73
2016-08-04T11:18:44.875Z,995.71
2016-08-04T11:19:44.898Z,995.71
2016-08-04T11:20:44.968Z,995.67
2016-08-04T11:21:44.941Z,995.68
2016-08-04T11:22:44.968Z,995.7
2016-08-04T11:23:44.988Z,995.68
2016-08-04T11:24:45.010Z,995.71
2016-08-04T11:25:45.034Z,995.7
2016-08-04T11:26:45.053Z,995.71
2016-08-04T11:27:45.079Z,995.67
2016-08-04T11:28:45.101Z,995.71
2016-08-04T11:29:45.122Z,995.71
2016-08-04T11:30:45.151Z,995.74
2016-08-04T11:31:45.164Z,995.74
2016-08-04T11:32:45.201Z,995.8
2016-08-04T11:33:45.211Z,995.84
2016-08-04T11:34:45.236Z,995.89
2016-08-04T11:35:45.259Z,995.86
2016-08-04T11:36:45.282Z,995.82
2016-08-04T11:37:45.302Z,995.88
2016-08-04T11:38:45.330Z,995.94
2016-08-04T11:39:45.352Z,995.96
2016-08-04T11:40:45.374Z,995.93
2016-08-04T11:41:45.397Z,995.87
2016-08-04T11:42:45.422Z,995.87
2016-08-04T11:43:45.445Z,995.88
2016-08-04T11:44:45.467Z,995.83
2016-08-04T11:45:45.490Z,995.8
2016-08-04T11:46:45.512Z,995.79
2016-08-04T11:47:45.535Z,995.81
2016-08-04T11:48:45.558Z,995.82
2016-08-04T11:49:45.579Z,995.76
2016-08-04T11:50:45.606Z,995.78
2016-08-04T11:51:45.631Z,995.76
2016-08-04T11:52:45.651Z,995.73
2016-08-04T11:53:45.674Z,995.72
2016-08-04T11:54:45.696Z,995.65
2016-08-04T11:55:45.929Z,995.62
2016-08-04T11:56:45.741Z,995.63
2016-08-04T11:57:45.766Z,995.65
2016-08-04T11:58:45.788Z,995.67
2016-08-04T11:59:45.812Z,995.75
2016-08-04T12:00:45.836Z,995.77
2016-08-04T12:01:45.892Z,995.78
2016-08-04T12:02:45.882Z,995.68
2016-08-04T12:03:45.906Z,995.75
2016-08-04T12:04:45.926Z,995.8
2016-08-04T12:05:45.952Z,995.74
2016-08-04T12:06:45.973Z,995.77
2016-08-04T12:07:45.997Z,995.8
2016-08-04T12:08:46.021Z,995.74
2016-08-04T12:09:46.046Z,995.75
2016-08-04T12:10:46.063Z,995.81
2016-08-04T12:11:46.089Z,995.88
2016-08-04T12:12:46.111Z,995.88
2016-08-04T12:13:46.134Z,995.91
2016-08-04T12:14:46.160Z,995.94
2016-08-04T12:15:46.184Z,995.86
2016-08-04T12:16:46.208Z,995.81
2016-08-04T12:17:46.251Z,995.88
2016-08-04T12:18:46.250Z,995.88
2016-08-04T12:19:46.276Z,995.9
2016-08-04T12:20:46.298Z,995.86
2016-08-04T12:21:46.321Z,995.84
2016-08-04T12:22:46.343Z,995.86
2016-08-04T12:23:46.368Z,995.84
2016-08-04T12:24:46.392Z,995.84
2016-08-04T12:25:46.412Z,995.88
2016-08-04T12:26:46.435Z,995.91
2016-08-04T12:27:46.463Z,995.92
2016-08-04T12:28:46.484Z,995.99
2016-08-04T12:29:46.507Z,996.02
2016-08-04T12:30:46.532Z,995.98
2016-08-04T12:31:46.556Z,996.05
2016-08-04T12:32:46.578Z,996.04
2016-08-04T12:33:46.602Z,996.12
2016-08-04T12:34:46.624Z,996.07
2016-08-04T12:35:46.646Z,996
2016-08-04T12:36:46.670Z,996.03
2016-08-04T12:37:46.692Z,995.99
2016-08-04T12:38:46.716Z,995.93
2016-08-04T12:39:46.738Z,995.95
2016-08-04T12:40:46.761Z,995.98
2016-08-04T12:41:46.782Z,995.98
2016-08-04T12:42:46.807Z,995.92
2016-08-04T12:43:46.831Z,996